Coral Ruby — 3ERR6 — position and weather

sailwx.info

Track history (hours):
 
Tides and Currents Weather Stations Pressure Air Temp Water Temp Dewpoint Dewpoint Depression Visibility Wind Speed Wind Dir Waves Ship Positions

Coral Ruby

Last reported at 2016-May-05 02:34 UTC. Time now 2016-May-06 12:58 UTC.
Position N 48°32' W 127°19'.

Length 225 m; draft 14 m.

Type: Ship. MMSI: 370150000.

Date/timePositionNaut miles runAvg speedWind from/ knotsBaromVisibWave heightAir tempDewpointWater temp
2016-May-05 02:34N 48°32' W 127°19'1110.6
2016-May-05 01:33N 48°32' W 127°03'1110.7
2016-May-05 00:33N 48°30' W 126°47'1110.8
2016-May-04 23:33N 48°30' W 126°31'1110.6
2016-May-04 22:34N 48°30' W 126°15'1110.8
2016-May-04 21:34N 48°27' W 125°59'1111.1
2016-May-04 20:34N 48°27' W 125°42'1110.5
2016-May-04 19:34N 48°31' W 125°27'1111.3
2016-May-04 18:33N 48°31' W 125°10'1311.8
2016-May-04 17:29N 48°31' W 124°51'3112.9
2016-May-04 15:06N 48°21' W 124°07'813.5
2016-May-04 14:31N 48°18' W 123°56'1414.6
2016-May-04 13:33N 48°16' W 123°35'1111.2
2016-May-04 12:33N 48°23' W 123°23'1110.8
2016-May-04 11:33N 48°32' W 123°13'1212.1
2016-May-04 10:33N 48°44' W 123°10'9 9.2
2016-May-04 09:34N 48°52' W 123°06'1414.2
2016-May-04 08:33N 49°02' W 123°21'1313.2
2016-May-04 07:33N 49°16' W 123°20'10 9.6
2016-May-04 06:33N 49°18' W 123°06'2 1.6
2016-May-04 05:31N 49°18' W 123°03'0 0.0
2016-May-04 04:31N 49°18' W 123°03'0 0.0
2016-May-04 03:31N 49°18' W 123°03'0 0.0
2016-May-04 02:31N 49°18' W 123°03'0 0.0
2016-May-04 01:31N 49°18' W 123°03'0 0.0
2016-May-04 00:31N 49°18' W 123°03'0 0.0
2016-May-03 23:31N 49°18' W 123°03'0 0.0
2016-May-03 22:31N 49°18' W 123°03'0 0.0
2016-May-03 21:31N 49°18' W 123°03'0 0.0
2016-May-03 20:31N 49°18' W 123°03'0 0.0
2016-May-03 19:31N 49°18' W 123°03'0 0.0
2016-May-03 18:31N 49°18' W 123°03'0 0.0
2016-May-03 17:31N 49°18' W 123°03'0 0.0
2016-May-03 16:31N 49°18' W 123°03'0 0.0
2016-May-03 15:31N 49°18' W 123°03'0 0.0
2016-May-03 14:31N 49°18' W 123°03'0 0.0
2016-May-03 13:31N 49°18' W 123°03'0 0.0
2016-May-03 12:31N 49°18' W 123°03'0 0.0
2016-May-03 11:31N 49°18' W 123°03'0 0.0
2016-May-03 10:31N 49°18' W 123°03'0 0.0
2016-May-03 09:31N 49°18' W 123°03'0 0.0
2016-May-03 08:31N 49°18' W 123°03'0 0.0
2016-May-03 07:31N 49°18' W 123°03'0 0.0
2016-May-03 06:31N 49°18' W 123°03'0 0.0
2016-May-03 05:31N 49°18' W 123°03'0 0.0
2016-May-03 04:31N 49°18' W 123°03'0 0.0
2016-May-03 03:31N 49°18' W 123°03'0 0.0
2016-May-03 02:31N 49°18' W 123°03'0 0.0
2016-May-03 01:31N 49°18' W 123°03'0 0.0
2016-May-03 00:31N 49°18' W 123°03'0 0.0
2016-May-02 23:31N 49°18' W 123°03'0 0.0
2016-May-02 22:31N 49°18' W 123°03'0 0.0
2016-May-02 21:31N 49°18' W 123°03'0 0.0
2016-May-02 20:31N 49°18' W 123°03'0 0.0
2016-May-02 19:31N 49°18' W 123°03'0 0.0
2016-May-02 18:31N 49°18' W 123°03'0 0.0
2016-May-02 17:28N 49°18' W 123°03'0 0.0
2016-May-02 16:28N 49°18' W 123°03'0 0.0
2016-May-02 15:31N 49°18' W 123°03'0 0.0
2016-May-02 14:31N 49°18' W 123°03'0 0.0
2016-May-02 13:31N 49°18' W 123°03'0 0.0
2016-May-02 12:31N 49°18' W 123°03'0 0.0
2016-May-02 11:31N 49°18' W 123°03'0 0.0
2016-May-02 10:31N 49°18' W 123°03'0 0.0
2016-May-02 09:31N 49°18' W 123°03'0 0.0
2016-May-02 08:31N 49°18' W 123°03'0 0.0
2016-May-02 07:31N 49°18' W 123°03'0 0.0
2016-May-02 06:31N 49°18' W 123°03'0 0.0
2016-May-02 05:28N 49°18' W 123°03'0 0.0
2016-May-02 04:31N 49°18' W 123°03'0 0.0
2016-May-02 03:31N 49°18' W 123°03'0 0.0
2016-May-02 02:31N 49°18' W 123°03'0 0.0
2016-May-02 01:31N 49°18' W 123°03'0 0.0
2016-May-02 00:31N 49°18' W 123°03'0 0.0
2016-May-01 23:31N 49°18' W 123°03'2 2.5
2016-May-01 22:33N 49°18' W 123°07'5 5.0
2016-May-01 21:31N 49°20' W 123°15'0 0.0
2016-May-01 20:31N 49°20' W 123°15'0 0.0
2016-May-01 19:31N 49°20' W 123°15'0 0.1
2016-May-01 18:32N 49°20' W 123°15'0 0.1
2016-May-01 17:31N 49°20' W 123°15'0 0.0
2016-May-01 16:31N 49°20' W 123°15'0 0.0
2016-May-01 15:31N 49°20' W 123°15'0 0.0
2016-May-01 14:31N 49°20' W 123°15'0 0.0
2016-May-01 13:32N 49°20' W 123°15'0 0.0
2016-May-01 12:31N 49°20' W 123°15'0 0.0
2016-May-01 11:31N 49°20' W 123°15'0 0.0
2016-May-01 10:31N 49°20' W 123°15'0 0.0
2016-May-01 09:31N 49°20' W 123°15'0 0.0
2016-May-01 08:31N 49°20' W 123°15'0 0.0
2016-May-01 07:31N 49°20' W 123°15'0 0.0
2016-May-01 06:31N 49°20' W 123°15'0 0.0
2016-May-01 05:32N 49°20' W 123°15'8 8.4
2016-May-01 04:33N 49°12' W 123°19'1413.9
2016-May-01 03:33N 48°59' W 123°13'1414.1
2016-May-01 02:33N 48°47' W 123°00'1313.0
2016-May-01 01:33N 48°38' W 123°13'1313.1
2016-May-01 00:33N 48°25' W 123°12'1110.8
2016-Apr-30 23:33N 48°19' W 123°25'9 8.8
2016-Apr-30 22:33N 48°13' W 123°36'1010.1
2016-Apr-30 21:33N 48°13' W 123°51'1010.6
2016-Apr-30 20:33N 48°17' W 124°06'1411.9
2016-Apr-30 19:22N 48°23' W 124°25'2211.7
2016-Apr-30 17:30N 48°29' W 124°57'1212.5
2016-Apr-30 16:33N 48°29' W 125°15'1312.8
2016-Apr-30 15:33N 48°28' W 125°34'10 9.7
2016-Apr-30 14:33N 48°29' W 125°49'1312.7
2016-Apr-30 13:33N 48°28' W 126°08'1312.8
2016-Apr-30 12:32N 48°28' W 126°28'  
Track history (hours):
 
Tides and Currents Weather Stations Pressure Air Temp Water Temp Dewpoint Dewpoint Depression Visibility Wind Speed Wind Dir Waves Ship Positions

Coral Ruby

Last reported at 2016-May-05 02:34 UTC. Time now 2016-May-06 12:58 UTC.
Position N 48°32' W 127°19'.

Length 225 m; draft 14 m.

Type: Ship. MMSI: 370150000.

Date/timePositionNaut miles runAvg speedWind from/ knotsBaromVisibWave heightAir tempDewpointWater temp
2016-May-05 02:34N 48°32' W 127°19'1110.6
2016-May-05 01:33N 48°32' W 127°03'1110.7
2016-May-05 00:33N 48°30' W 126°47'1110.8
2016-May-04 23:33N 48°30' W 126°31'1110.6
2016-May-04 22:34N 48°30' W 126°15'1110.8
2016-May-04 21:34N 48°27' W 125°59'1111.1
2016-May-04 20:34N 48°27' W 125°42'1110.5
2016-May-04 19:34N 48°31' W 125°27'1111.3
2016-May-04 18:33N 48°31' W 125°10'1311.8
2016-May-04 17:29N 48°31' W 124°51'3112.9
2016-May-04 15:06N 48°21' W 124°07'813.5
2016-May-04 14:31N 48°18' W 123°56'1414.6
2016-May-04 13:33N 48°16' W 123°35'1111.2
2016-May-04 12:33N 48°23' W 123°23'1110.8
2016-May-04 11:33N 48°32' W 123°13'1212.1
2016-May-04 10:33N 48°44' W 123°10'9 9.2
2016-May-04 09:34N 48°52' W 123°06'1414.2
2016-May-04 08:33N 49°02' W 123°21'1313.2
2016-May-04 07:33N 49°16' W 123°20'10 9.6
2016-May-04 06:33N 49°18' W 123°06'2 1.6
2016-May-04 05:31N 49°18' W 123°03'0 0.0
2016-May-04 04:31N 49°18' W 123°03'0 0.0
2016-May-04 03:31N 49°18' W 123°03'0 0.0
2016-May-04 02:31N 49°18' W 123°03'0 0.0
2016-May-04 01:31N 49°18' W 123°03'0 0.0
2016-May-04 00:31N 49°18' W 123°03'0 0.0
2016-May-03 23:31N 49°18' W 123°03'0 0.0
2016-May-03 22:31N 49°18' W 123°03'0 0.0
2016-May-03 21:31N 49°18' W 123°03'0 0.0
2016-May-03 20:31N 49°18' W 123°03'0 0.0
2016-May-03 19:31N 49°18' W 123°03'0 0.0
2016-May-03 18:31N 49°18' W 123°03'0 0.0
2016-May-03 17:31N 49°18' W 123°03'0 0.0
2016-May-03 16:31N 49°18' W 123°03'0 0.0
2016-May-03 15:31N 49°18' W 123°03'0 0.0
2016-May-03 14:31N 49°18' W 123°03'0 0.0
2016-May-03 13:31N 49°18' W 123°03'0 0.0
2016-May-03 12:31N 49°18' W 123°03'0 0.0
2016-May-03 11:31N 49°18' W 123°03'0 0.0
2016-May-03 10:31N 49°18' W 123°03'0 0.0
2016-May-03 09:31N 49°18' W 123°03'0 0.0
2016-May-03 08:31N 49°18' W 123°03'0 0.0
2016-May-03 07:31N 49°18' W 123°03'0 0.0
2016-May-03 06:31N 49°18' W 123°03'0 0.0
2016-May-03 05:31N 49°18' W 123°03'0 0.0
2016-May-03 04:31N 49°18' W 123°03'0 0.0
2016-May-03 03:31N 49°18' W 123°03'0 0.0
2016-May-03 02:31N 49°18' W 123°03'0 0.0
2016-May-03 01:31N 49°18' W 123°03'0 0.0
2016-May-03 00:31N 49°18' W 123°03'0 0.0
2016-May-02 23:31N 49°18' W 123°03'0 0.0
2016-May-02 22:31N 49°18' W 123°03'0 0.0
2016-May-02 21:31N 49°18' W 123°03'0 0.0
2016-May-02 20:31N 49°18' W 123°03'0 0.0
2016-May-02 19:31N 49°18' W 123°03'0 0.0
2016-May-02 18:31N 49°18' W 123°03'0 0.0
2016-May-02 17:28N 49°18' W 123°03'0 0.0
2016-May-02 16:28N 49°18' W 123°03'0 0.0
2016-May-02 15:31N 49°18' W 123°03'0 0.0
2016-May-02 14:31N 49°18' W 123°03'0 0.0
2016-May-02 13:31N 49°18' W 123°03'0 0.0
2016-May-02 12:31N 49°18' W 123°03'0 0.0
2016-May-02 11:31N 49°18' W 123°03'0 0.0
2016-May-02 10:31N 49°18' W 123°03'0 0.0
2016-May-02 09:31N 49°18' W 123°03'0 0.0
2016-May-02 08:31N 49°18' W 123°03'0 0.0
2016-May-02 07:31N 49°18' W 123°03'0 0.0
2016-May-02 06:31N 49°18' W 123°03'0 0.0
2016-May-02 05:28N 49°18' W 123°03'0 0.0
2016-May-02 04:31N 49°18' W 123°03'0 0.0
2016-May-02 03:31N 49°18' W 123°03'0 0.0
2016-May-02 02:31N 49°18' W 123°03'0 0.0
2016-May-02 01:31N 49°18' W 123°03'0 0.0
2016-May-02 00:31N 49°18' W 123°03'0 0.0
2016-May-01 23:31N 49°18' W 123°03'2 2.5
2016-May-01 22:33N 49°18' W 123°07'5 5.0
2016-May-01 21:31N 49°20' W 123°15'0 0.0
2016-May-01 20:31N 49°20' W 123°15'0 0.0
2016-May-01 19:31N 49°20' W 123°15'0 0.1
2016-May-01 18:32N 49°20' W 123°15'0 0.1
2016-May-01 17:31N 49°20' W 123°15'0 0.0
2016-May-01 16:31N 49°20' W 123°15'0 0.0
2016-May-01 15:31N 49°20' W 123°15'0 0.0
2016-May-01 14:31N 49°20' W 123°15'0 0.0
2016-May-01 13:32N 49°20' W 123°15'0 0.0
2016-May-01 12:31N 49°20' W 123°15'0 0.0
2016-May-01 11:31N 49°20' W 123°15'0 0.0
2016-May-01 10:31N 49°20' W 123°15'0 0.0
2016-May-01 09:31N 49°20' W 123°15'0 0.0
2016-May-01 08:31N 49°20' W 123°15'0 0.0
2016-May-01 07:31N 49°20' W 123°15'0 0.0
2016-May-01 06:31N 49°20' W 123°15'0 0.0
2016-May-01 05:32N 49°20' W 123°15'8 8.4
2016-May-01 04:33N 49°12' W 123°19'1413.9
2016-May-01 03:33N 48°59' W 123°13'1414.1
2016-May-01 02:33N 48°47' W 123°00'1313.0
2016-May-01 01:33N 48°38' W 123°13'1313.1
2016-May-01 00:33N 48°25' W 123°12'1110.8
2016-Apr-30 23:33N 48°19' W 123°25'9 8.8
2016-Apr-30 22:33N 48°13' W 123°36'1010.1
2016-Apr-30 21:33N 48°13' W 123°51'1010.6
2016-Apr-30 20:33N 48°17' W 124°06'1411.9
2016-Apr-30 19:22N 48°23' W 124°25'2211.7
2016-Apr-30 17:30N 48°29' W 124°57'1212.5
2016-Apr-30 16:33N 48°29' W 125°15'1312.8
2016-Apr-30 15:33N 48°28' W 125°34'10 9.7
2016-Apr-30 14:33N 48°29' W 125°49'1312.7
2016-Apr-30 13:33N 48°28' W 126°08'1312.8
2016-Apr-30 12:32N 48°28' W 126°28'  

Dump ship's entire track history